Aviation Digital Data Service (ADDS)

Output produced by METARs form (0644 UTC 03 December 2016)
found at http://aviationweather.gov/adds/metars/
 
KPWM 030526Z 0306/0406 30010KT P6SM SCT040 BKN080 
     FM031500 33014G22KT P6SM BKN045 BKN080 
     FM032300 32010KT P6SM SKC